Time;durP1;ratioP1;P1;durP2;ratioP2;P2;SDS_P1;SDS_P2;PMS_P1;PMS_P2;Temp;Humidity;BMP_temperature;BMP_pressure;BME280_temperature;BME280_humidity;BME280_pressure;Samples;Min_cycle;Max_cycle;Signal;HPM_P1;HPM_P2
2022/09/09 00:00:41;;;;;;;3.53;2.10;;;;;;;;;;4975303;28;20745;-52
2022/09/09 00:03:21;;;;;;;3.33;2.20;;;;;;;;;;4975672;28;20486;-48
2022/09/09 00:05:53;;;;;;;5.57;1.93;;;;;;;;;;4975422;28;20486;-48
2022/09/09 00:08:20;;;;;;;4.23;2.03;;;;;;;;;;4975473;28;20389;-49
2022/09/09 00:10:51;;;;;;;4.10;1.90;;;;;;;;;;4975286;28;20431;-52
2022/09/09 00:13:25;;;;;;;2.97;2.40;;;;;;;;;;4975597;28;20416;-51
2022/09/09 00:15:58;;;;;;;8.60;2.20;;;;;;;;;;4975072;28;20460;-52
2022/09/09 00:18:29;;;;;;;2.30;2.10;;;;;;;;;;4975105;28;20406;-49
2022/09/09 00:21:09;;;;;;;3.10;2.30;;;;;;;;;;4975446;28;20405;-48
2022/09/09 00:23:39;;;;;;;3.50;2.00;;;;;;;;;;4975340;28;20400;-48
2022/09/09 00:26:10;;;;;;;2.40;2.20;;;;;;;;;;4972921;28;20464;-48
2022/09/09 00:28:40;;;;;;;3.13;2.20;;;;;;;;;;4974098;28;21218;-49
2022/09/09 00:31:12;;;;;;;2.80;2.00;;;;;;;;;;4974970;28;20778;-49
2022/09/09 00:33:38;;;;;;;2.30;2.20;;;;;;;;;;4975166;28;20820;-52
2022/09/09 00:36:10;;;;;;;5.63;2.67;;;;;;;;;;4973737;28;20457;-57
2022/09/09 00:38:38;;;;;;;2.17;1.97;;;;;;;;;;4973395;28;20417;-49
2022/09/09 00:41:12;;;;;;;2.30;2.10;;;;;;;;;;4974844;28;20380;-51
2022/09/09 00:43:38;;;;;;;4.70;2.10;;;;;;;;;;4974971;28;20495;-48
2022/09/09 00:46:10;;;;;;;6.23;2.37;;;;;;;;;;4974988;28;20811;-48
2022/09/09 00:48:56;;;;;;;5.30;2.10;;;;;;;;;;4973158;28;20670;-48
2022/09/09 00:51:25;;;;;;;4.10;2.23;;;;;;;;;;4973907;28;20893;-48
2022/09/09 00:54:06;;;;;;;2.80;2.60;;;;;;;;;;4974906;28;20474;-52
2022/09/09 00:56:42;;;;;;;3.50;3.20;;;;;;;;;;4974496;28;20431;-48
2022/09/09 00:59:10;;;;;;;3.83;3.53;;;;;;;;;;4972983;28;20956;-48
2022/09/09 01:01:39;;;;;;;6.20;4.00;;;;;;;;;;4973983;28;20952;-55
2022/09/09 01:04:08;;;;;;;4.90;4.00;;;;;;;;;;4973956;28;20749;-47
2022/09/09 01:06:36;;;;;;;4.20;3.90;;;;;;;;;;4974310;28;20420;-48
2022/09/09 01:09:15;;;;;;;6.43;3.67;;;;;;;;;;4972983;28;20425;-47
2022/09/09 01:11:53;;;;;;;7.93;4.43;;;;;;;;;;4973912;28;20405;-51
2022/09/09 01:14:23;;;;;;;5.40;4.23;;;;;;;;;;4974220;28;20500;-48
2022/09/09 01:16:50;;;;;;;4.23;3.77;;;;;;;;;;4974150;28;20435;-51
2022/09/09 01:19:20;;;;;;;7.63;4.40;;;;;;;;;;4972873;28;20475;-50
2022/09/09 01:21:56;;;;;;;7.17;3.90;;;;;;;;;;4974301;28;20426;-48
2022/09/09 01:24:41;;;;;;;4.33;3.90;;;;;;;;;;4974208;28;20411;-50
2022/09/09 01:27:07;;;;;;;11.73;4.20;;;;;;;;;;4974268;28;20435;-48
2022/09/09 01:29:33;;;;;;;4.93;2.97;;;;;;;;;;4972706;28;20427;-49
2022/09/09 01:32:01;;;;;;;3.90;3.00;;;;;;;;;;4973541;28;20376;-48
2022/09/09 01:34:33;;;;;;;4.70;3.53;;;;;;;;;;4973929;28;20459;-52
2022/09/09 01:37:07;;;;;;;3.73;3.33;;;;;;;;;;4973153;28;20424;-49
2022/09/09 01:39:36;;;;;;;6.43;3.03;;;;;;;;;;4972462;28;20869;-51
2022/09/09 01:42:04;;;;;;;3.97;3.23;;;;;;;;;;4973408;28;20471;-48
2022/09/09 01:44:30;;;;;;;6.47;3.87;;;;;;;;;;4973766;28;20400;-48
2022/09/09 01:46:56;;;;;;;4.40;3.77;;;;;;;;;;4973600;28;20935;-50
2022/09/09 01:49:23;;;;;;;5.90;4.27;;;;;;;;;;4973301;28;20403;-49
2022/09/09 01:51:50;;;;;;;7.10;4.10;;;;;;;;;;4971537;28;20515;-49
2022/09/09 01:54:16;;;;;;;15.00;4.80;;;;;;;;;;4973264;28;20492;-53
2022/09/09 01:56:47;;;;;;;4.30;4.00;;;;;;;;;;4973359;28;20457;-48
2022/09/09 01:59:13;;;;;;;5.13;4.13;;;;;;;;;;4972937;28;20959;-48
2022/09/09 02:01:48;;;;;;;6.77;3.60;;;;;;;;;;4971735;28;20490;-48
2022/09/09 02:04:37;;;;;;;3.93;3.63;;;;;;;;;;4972984;28;20753;-49
2022/09/09 02:07:06;;;;;;;6.63;3.30;;;;;;;;;;4973273;28;20391;-50
2022/09/09 02:09:32;;;;;;;5.70;3.30;;;;;;;;;;4972554;28;20390;-47
2022/09/09 02:12:14;;;;;;;5.87;3.17;;;;;;;;;;4973196;28;20408;-50
2022/09/09 02:14:42;;;;;;;4.90;3.60;;;;;;;;;;4973149;28;20430;-51
2022/09/09 02:17:10;;;;;;;4.70;3.30;;;;;;;;;;4973227;28;20406;-50
2022/09/09 02:19:38;;;;;;;7.13;3.80;;;;;;;;;;4972901;28;20452;-47
2022/09/09 02:22:04;;;;;;;3.80;3.50;;;;;;;;;;4973423;28;20409;-48
2022/09/09 02:24:33;;;;;;;4.57;3.60;;;;;;;;;;4973343;28;20435;-48
2022/09/09 02:27:00;;;;;;;3.43;3.00;;;;;;;;;;4973084;28;20954;-51
2022/09/09 02:29:28;;;;;;;8.80;3.57;;;;;;;;;;4972797;28;20375;-48
2022/09/09 02:31:56;;;;;;;6.50;3.80;;;;;;;;;;4973167;28;20744;-47
2022/09/09 02:34:24;;;;;;;3.57;2.97;;;;;;;;;;4973063;28;20880;-48
2022/09/09 02:36:51;;;;;;;4.00;3.60;;;;;;;;;;4972964;28;20949;-47
2022/09/09 02:39:17;;;;;;;8.53;2.73;;;;;;;;;;4972679;28;20463;-51
2022/09/09 02:41:43;;;;;;;5.13;2.83;;;;;;;;;;4973224;28;20841;-51
2022/09/09 02:44:11;;;;;;;3.07;2.77;;;;;;;;;;4973054;28;20459;-48
2022/09/09 02:46:41;;;;;;;5.40;3.07;;;;;;;;;;4972811;28;20428;-48
2022/09/09 02:49:10;;;;;;;3.13;2.50;;;;;;;;;;4972960;28;20397;-48
2022/09/09 02:51:48;;;;;;;4.97;3.00;;;;;;;;;;4977154;28;20440;-47
2022/09/09 02:54:23;;;;;;;3.80;3.40;;;;;;;;;;4976860;28;20512;-49
2022/09/09 02:56:56;;;;;;;5.37;3.13;;;;;;;;;;4976598;28;20498;-50
2022/09/09 02:59:24;;;;;;;5.90;2.93;;;;;;;;;;4976332;28;20952;-47
2022/09/09 03:01:50;;;;;;;4.63;3.80;;;;;;;;;;4975478;28;20511;-49
2022/09/09 03:04:16;;;;;;;4.13;3.03;;;;;;;;;;4975668;28;20966;-48
2022/09/09 03:06:43;;;;;;;7.00;3.50;;;;;;;;;;4976035;28;20407;-48
2022/09/09 03:09:10;;;;;;;8.07;3.30;;;;;;;;;;4976260;28;20411;-49
2022/09/09 03:11:36;;;;;;;5.60;4.07;;;;;;;;;;4976665;28;20416;-51
2022/09/09 03:14:02;;;;;;;4.53;2.87;;;;;;;;;;4976042;28;20897;-48
2022/09/09 03:16:28;;;;;;;7.93;3.50;;;;;;;;;;4976200;28;20467;-50
2022/09/09 03:18:54;;;;;;;6.80;3.87;;;;;;;;;;4976103;28;20408;-51
2022/09/09 03:21:20;;;;;;;4.73;2.80;;;;;;;;;;4976500;28;20400;-47
2022/09/09 03:23:46;;;;;;;5.97;3.40;;;;;;;;;;4976356;28;20423;-47
2022/09/09 03:26:14;;;;;;;8.50;3.20;;;;;;;;;;4976191;28;20449;-47
2022/09/09 03:28:40;;;;;;;3.60;3.30;;;;;;;;;;4975928;28;20406;-48
2022/09/09 03:31:10;;;;;;;4.20;3.50;;;;;;;;;;4976286;28;20463;-49
2022/09/09 03:33:40;;;;;;;5.83;3.67;;;;;;;;;;4976189;28;20881;-48
2022/09/09 03:36:08;;;;;;;8.57;3.17;;;;;;;;;;4975920;28;20495;-49
2022/09/09 03:38:34;;;;;;;6.70;3.10;;;;;;;;;;4975703;28;20409;-52
2022/09/09 03:41:01;;;;;;;6.30;2.57;;;;;;;;;;4976114;28;20435;-51
2022/09/09 03:43:28;;;;;;;4.80;2.80;;;;;;;;;;4975995;28;20379;-47
2022/09/09 03:45:57;;;;;;;3.90;2.70;;;;;;;;;;4975867;28;20473;-48
2022/09/09 03:48:24;;;;;;;6.47;2.90;;;;;;;;;;4974282;28;20417;-57
2022/09/09 03:50:51;;;;;;;9.13;2.77;;;;;;;;;;4975391;28;20416;-48
2022/09/09 03:53:19;;;;;;;8.10;2.70;;;;;;;;;;4976198;28;20418;-52
2022/09/09 03:55:49;;;;;;;8.67;2.80;;;;;;;;;;4975144;28;20548;-47
2022/09/09 03:58:15;;;;;;;4.63;2.60;;;;;;;;;;4974031;28;20429;-47
2022/09/09 04:00:44;;;;;;;7.43;3.20;;;;;;;;;;4973297;28;20405;-48
2022/09/09 04:03:11;;;;;;;8.40;2.40;;;;;;;;;;4975606;28;20390;-47
2022/09/09 04:05:39;;;;;;;2.60;2.30;;;;;;;;;;4975394;28;20921;-47
2022/09/09 04:08:06;;;;;;;4.53;2.73;;;;;;;;;;4974578;28;20432;-47
2022/09/09 04:10:32;;;;;;;11.00;3.57;;;;;;;;;;4973793;28;20409;-51
2022/09/09 04:12:59;;;;;;;4.53;3.10;;;;;;;;;;4975625;28;20864;-51
2022/09/09 04:15:25;;;;;;;6.50;3.20;;;;;;;;;;4975119;28;20470;-50
2022/09/09 04:17:51;;;;;;;3.47;3.17;;;;;;;;;;4975930;28;20523;-51
2022/09/09 04:20:17;;;;;;;4.30;2.50;;;;;;;;;;4975040;28;20397;-51
2022/09/09 04:22:43;;;;;;;5.03;2.40;;;;;;;;;;4975386;28;20405;-50
2022/09/09 04:25:09;;;;;;;8.73;2.97;;;;;;;;;;4973879;28;20880;-51
2022/09/09 04:27:35;;;;;;;4.87;2.90;;;;;;;;;;4975272;28;20412;-52
2022/09/09 04:30:01;;;;;;;9.00;2.73;;;;;;;;;;4974840;28;20446;-51
2022/09/09 04:32:27;;;;;;;11.63;3.00;;;;;;;;;;4975178;28;20383;-52
2022/09/09 04:34:53;;;;;;;4.07;2.80;;;;;;;;;;4974892;28;20503;-51
2022/09/09 04:37:19;;;;;;;5.23;2.83;;;;;;;;;;4974966;28;20395;-52
2022/09/09 04:39:45;;;;;;;5.40;2.63;;;;;;;;;;4974784;28;20382;-51
2022/09/09 04:42:11;;;;;;;5.37;3.37;;;;;;;;;;4975033;28;20782;-50
2022/09/09 04:44:37;;;;;;;5.40;3.20;;;;;;;;;;4973780;28;20424;-51
2022/09/09 04:47:03;;;;;;;3.60;3.20;;;;;;;;;;4974132;28;20432;-51
2022/09/09 04:49:30;;;;;;;5.20;2.67;;;;;;;;;;4974293;28;20880;-50
2022/09/09 04:51:56;;;;;;;6.00;4.20;;;;;;;;;;4974854;28;20445;-51
2022/09/09 04:54:22;;;;;;;3.83;2.70;;;;;;;;;;4974649;28;20859;-52
2022/09/09 04:56:50;;;;;;;5.97;3.60;;;;;;;;;;4974137;28;20915;-51
2022/09/09 04:59:16;;;;;;;7.10;3.20;;;;;;;;;;4974093;28;20430;-52
2022/09/09 05:01:42;;;;;;;7.07;3.13;;;;;;;;;;4974674;28;20413;-51
2022/09/09 05:04:08;;;;;;;3.33;3.03;;;;;;;;;;4974464;28;20390;-52
2022/09/09 05:06:36;;;;;;;5.17;2.67;;;;;;;;;;4974327;28;20468;-50
2022/09/09 05:09:02;;;;;;;6.43;3.20;;;;;;;;;;4974053;28;20759;-51
2022/09/09 05:11:29;;;;;;;6.20;3.30;;;;;;;;;;4973296;28;20580;-51
2022/09/09 05:13:56;;;;;;;5.33;2.77;;;;;;;;;;4973210;28;20930;-52
2022/09/09 05:16:23;;;;;;;4.60;2.57;;;;;;;;;;4972492;28;20477;-52
2022/09/09 05:18:51;;;;;;;5.07;2.63;;;;;;;;;;4973771;28;20389;-49
2022/09/09 05:21:17;;;;;;;7.03;2.70;;;;;;;;;;4973125;28;20512;-51
2022/09/09 05:23:45;;;;;;;3.83;2.80;;;;;;;;;;4973490;28;20414;-49
2022/09/09 05:26:13;;;;;;;7.30;3.37;;;;;;;;;;4972114;28;20425;-51
2022/09/09 05:28:39;;;;;;;4.03;2.93;;;;;;;;;;4973016;28;20833;-52
2022/09/09 05:31:11;;;;;;;4.70;2.67;;;;;;;;;;4972955;28;20417;-52
2022/09/09 05:33:37;;;;;;;6.37;2.97;;;;;;;;;;4972716;28;20407;-52
2022/09/09 05:36:05;;;;;;;4.40;2.87;;;;;;;;;;4972515;28;20439;-51
2022/09/09 05:38:31;;;;;;;5.40;2.60;;;;;;;;;;4972804;28;20396;-48
2022/09/09 05:40:57;;;;;;;6.97;3.57;;;;;;;;;;4971592;28;20397;-52
2022/09/09 05:43:24;;;;;;;5.67;2.73;;;;;;;;;;4972502;28;20801;-50
2022/09/09 05:46:00;;;;;;;4.23;2.97;;;;;;;;;;4972133;28;20502;-51
2022/09/09 05:48:28;;;;;;;4.53;2.83;;;;;;;;;;4972674;28;20393;-51
2022/09/09 05:50:54;;;;;;;4.67;2.80;;;;;;;;;;4972207;28;20391;-51
2022/09/09 05:53:20;;;;;;;6.80;2.97;;;;;;;;;;4972509;28;20905;-51
2022/09/09 05:55:47;;;;;;;4.50;2.70;;;;;;;;;;4972469;28;20860;-51
2022/09/09 05:58:15;;;;;;;3.80;2.30;;;;;;;;;;4972325;28;20395;-50
2022/09/09 06:00:41;;;;;;;6.30;2.60;;;;;;;;;;4971928;28;20982;-51
2022/09/09 06:03:07;;;;;;;7.27;2.83;;;;;;;;;;4972780;28;20435;-51
2022/09/09 06:05:34;;;;;;;8.30;3.03;;;;;;;;;;4972077;28;20443;-50
2022/09/09 06:08:00;;;;;;;6.63;2.43;;;;;;;;;;4972555;28;20407;-52
2022/09/09 06:10:26;;;;;;;6.23;2.50;;;;;;;;;;4971814;28;20418;-52
2022/09/09 06:12:53;;;;;;;5.53;2.37;;;;;;;;;;4970556;28;20466;-52
2022/09/09 06:15:19;;;;;;;4.13;2.47;;;;;;;;;;4969582;28;20427;-52
2022/09/09 06:17:45;;;;;;;11.57;3.60;;;;;;;;;;4973072;28;20399;-50
2022/09/09 06:20:11;;;;;;;4.97;2.50;;;;;;;;;;4970318;28;20479;-51
2022/09/09 06:22:40;;;;;;;24.10;12.70;;;;;;;;;;4973397;28;20421;-49
2022/09/09 06:25:06;;;;;;;3.93;2.03;;;;;;;;;;4971417;28;20413;-51
2022/09/09 06:27:32;;;;;;;5.50;2.80;;;;;;;;;;4970834;28;20395;-49
2022/09/09 06:29:58;;;;;;;4.60;2.43;;;;;;;;;;4972360;28;20784;-51
2022/09/09 06:32:24;;;;;;;3.97;2.63;;;;;;;;;;4972246;28;20828;-51
2022/09/09 06:34:50;;;;;;;7.00;2.30;;;;;;;;;;4971368;28;20451;-49
2022/09/09 06:37:16;;;;;;;10.57;2.70;;;;;;;;;;4972726;28;20763;-50
2022/09/09 06:39:42;;;;;;;9.97;3.03;;;;;;;;;;4971615;28;20391;-51
2022/09/09 06:42:09;;;;;;;5.33;2.20;;;;;;;;;;4970863;28;20763;-50
2022/09/09 06:44:36;;;;;;;3.17;2.27;;;;;;;;;;4971914;28;20614;-52
2022/09/09 06:47:02;;;;;;;3.33;2.43;;;;;;;;;;4972224;28;20610;-50
2022/09/09 06:49:28;;;;;;;6.77;2.70;;;;;;;;;;4969679;28;20396;-50
2022/09/09 06:51:54;;;;;;;4.23;2.40;;;;;;;;;;4958937;28;20421;-49
2022/09/09 06:54:21;;;;;;;4.33;2.10;;;;;;;;;;4971452;28;20418;-50
2022/09/09 06:56:49;;;;;;;5.33;2.13;;;;;;;;;;4971882;28;20481;-51
2022/09/09 06:59:15;;;;;;;3.77;1.90;;;;;;;;;;4972062;28;20775;-51
2022/09/09 07:01:51;;;;;;;2.47;2.03;;;;;;;;;;4972505;28;20380;-51
2022/09/09 07:04:17;;;;;;;5.17;2.90;;;;;;;;;;4972059;28;20546;-51
2022/09/09 07:06:45;;;;;;;5.23;2.37;;;;;;;;;;4972691;28;20923;-48
2022/09/09 07:09:12;;;;;;;6.50;2.40;;;;;;;;;;4971514;28;20426;-50
2022/09/09 07:11:41;;;;;;;5.50;2.40;;;;;;;;;;4970931;28;20500;-49
2022/09/09 07:14:07;;;;;;;3.33;1.70;;;;;;;;;;4967646;28;20398;-49
2022/09/09 07:16:36;;;;;;;5.20;2.00;;;;;;;;;;4971267;28;20475;-47
2022/09/09 07:19:02;;;;;;;9.47;2.43;;;;;;;;;;4972043;28;20385;-48
2022/09/09 07:21:29;;;;;;;3.17;1.87;;;;;;;;;;4972093;28;20904;-48
2022/09/09 07:23:55;;;;;;;2.53;1.80;;;;;;;;;;4971891;28;20529;-50
2022/09/09 07:26:23;;;;;;;3.40;1.60;;;;;;;;;;4972191;28;20445;-48
2022/09/09 07:28:49;;;;;;;1.97;1.60;;;;;;;;;;4971850;28;20882;-50
2022/09/09 07:31:16;;;;;;;5.67;1.83;;;;;;;;;;4973197;28;20436;-51
2022/09/09 07:33:43;;;;;;;4.90;1.67;;;;;;;;;;4971854;28;20433;-49
2022/09/09 07:36:10;;;;;;;5.13;1.73;;;;;;;;;;4973647;28;20457;-48
2022/09/09 07:38:40;;;;;;;4.00;1.50;;;;;;;;;;4975903;28;20914;-49
2022/09/09 07:41:08;;;;;;;3.93;1.53;;;;;;;;;;4974989;28;20430;-48
2022/09/09 07:43:34;;;;;;;4.07;1.53;;;;;;;;;;4975459;28;20917;-48
2022/09/09 07:46:03;;;;;;;5.03;1.77;;;;;;;;;;4974698;28;20444;-50
2022/09/09 07:48:29;;;;;;;4.43;1.90;;;;;;;;;;4975112;28;20482;-48
2022/09/09 07:51:05;;;;;;;7.80;1.80;;;;;;;;;;4973755;28;20424;-47
2022/09/09 07:53:31;;;;;;;7.03;1.77;;;;;;;;;;4975846;28;20407;-47
2022/09/09 07:56:03;;;;;;;2.33;1.30;;;;;;;;;;4973884;28;20531;-48
2022/09/09 07:58:29;;;;;;;3.33;1.60;;;;;;;;;;4975713;28;21016;-51
2022/09/09 08:00:55;;;;;;;1.97;1.40;;;;;;;;;;4974734;28;20416;-49
2022/09/09 08:03:21;;;;;;;8.13;2.30;;;;;;;;;;4972746;28;20989;-47
2022/09/09 08:05:47;;;;;;;2.20;1.63;;;;;;;;;;4960898;28;20474;-51
2022/09/09 08:08:13;;;;;;;3.80;1.70;;;;;;;;;;4961287;28;20444;-50
2022/09/09 08:10:39;;;;;;;3.83;1.40;;;;;;;;;;4974052;28;20413;-49
2022/09/09 08:13:05;;;;;;;2.47;1.27;;;;;;;;;;4974165;28;20425;-48
2022/09/09 08:15:32;;;;;;;3.17;1.67;;;;;;;;;;4975064;28;20515;-49
2022/09/09 08:17:58;;;;;;;3.23;1.47;;;;;;;;;;4975167;28;20397;-49
2022/09/09 08:20:24;;;;;;;6.00;1.60;;;;;;;;;;4974273;28;20428;-48
2022/09/09 08:22:50;;;;;;;3.50;1.40;;;;;;;;;;4975138;28;20429;-47
2022/09/09 08:25:16;;;;;;;2.93;1.57;;;;;;;;;;4974531;28;20446;-49
2022/09/09 08:27:42;;;;;;;5.60;1.67;;;;;;;;;;4975091;28;20437;-51
2022/09/09 08:30:08;;;;;;;2.90;1.73;;;;;;;;;;4973388;28;20415;-53
2022/09/09 08:32:35;;;;;;;1.83;1.50;;;;;;;;;;4974350;28;20450;-53
2022/09/09 08:35:00;;;;;;;5.77;2.07;;;;;;;;;;4974460;28;20448;-53
2022/09/09 08:37:26;;;;;;;3.00;1.53;;;;;;;;;;4974683;28;20421;-53
2022/09/09 08:39:54;;;;;;;3.60;1.60;;;;;;;;;;4974380;28;20410;-51
2022/09/09 08:42:20;;;;;;;6.40;2.17;;;;;;;;;;4973709;28;20786;-53
2022/09/09 08:44:45;;;;;;;6.50;1.40;;;;;;;;;;4973978;28;20417;-47
2022/09/09 08:47:30;;;;;;;5.07;2.00;;;;;;;;;;4973457;28;20429;-47
2022/09/09 08:50:06;;;;;;;2.70;1.47;;;;;;;;;;4974023;28;20467;-46
2022/09/09 08:52:38;;;;;;;6.83;1.73;;;;;;;;;;4974662;28;20400;-48
2022/09/09 08:55:16;;;;;;;7.30;1.93;;;;;;;;;;4974038;28;20956;-47
2022/09/09 08:57:44;;;;;;;5.93;2.00;;;;;;;;;;4974600;28;20482;-48
2022/09/09 09:00:11;;;;;;;3.33;1.53;;;;;;;;;;4973315;28;20429;-47
2022/09/09 09:02:39;;;;;;;6.30;1.47;;;;;;;;;;4974433;28;20911;-48
2022/09/09 09:05:09;;;;;;;2.90;1.57;;;;;;;;;;4973787;28;20430;-48
2022/09/09 09:07:38;;;;;;;3.50;1.67;;;;;;;;;;4974157;28;20405;-47
2022/09/09 09:10:15;;;;;;;6.07;1.80;;;;;;;;;;4973776;28;20483;-47
2022/09/09 09:12:43;;;;;;;4.90;1.90;;;;;;;;;;4972887;28;20464;-51
2022/09/09 09:15:30;;;;;;;2.87;1.60;;;;;;;;;;4973183;28;20460;-50
2022/09/09 09:17:57;;;;;;;4.90;2.33;;;;;;;;;;4973948;28;20956;-50
2022/09/09 09:20:43;;;;;;;3.83;1.73;;;;;;;;;;4973169;28;20451;-51
2022/09/09 09:23:15;;;;;;;2.63;1.47;;;;;;;;;;4973863;28;20419;-50
2022/09/09 09:25:44;;;;;;;3.93;1.87;;;;;;;;;;4972818;28;20475;-51
2022/09/09 09:28:10;;;;;;;3.33;2.20;;;;;;;;;;4973163;28;20784;-51
2022/09/09 09:30:38;;;;;;;3.50;1.60;;;;;;;;;;4972157;28;20959;-50
2022/09/09 09:33:21;;;;;;;2.83;1.20;;;;;;;;;;4973645;28;20508;-51
2022/09/09 09:35:48;;;;;;;4.13;1.67;;;;;;;;;;4973019;28;20575;-51
2022/09/09 09:38:17;;;;;;;6.47;1.50;;;;;;;;;;4973416;28;20409;-50
2022/09/09 09:40:57;;;;;;;4.10;1.67;;;;;;;;;;4972978;28;20942;-50
2022/09/09 09:43:29;;;;;;;5.77;1.57;;;;;;;;;;4973798;28;20782;-49
2022/09/09 09:45:57;;;;;;;6.40;2.07;;;;;;;;;;4973196;28;20448;-50
2022/09/09 09:48:23;;;;;;;3.93;2.37;;;;;;;;;;4973199;28;20423;-50
2022/09/09 09:51:16;;;;;;;3.30;1.70;;;;;;;;;;4970787;28;20991;-49
2022/09/09 09:53:42;;;;;;;3.07;1.70;;;;;;;;;;4969561;28;20432;-51
2022/09/09 09:56:12;;;;;;;5.20;1.73;;;;;;;;;;4972921;28;20502;-51
2022/09/09 09:58:50;;;;;;;2.90;1.97;;;;;;;;;;4972201;28;20440;-51
2022/09/09 10:01:31;;;;;;;4.50;1.53;;;;;;;;;;4973175;28;20555;-50
2022/09/09 10:04:00;;;;;;;5.30;1.70;;;;;;;;;;4972975;28;20496;-50
2022/09/09 10:06:37;;;;;;;5.17;2.27;;;;;;;;;;4972484;28;20499;-50
2022/09/09 10:09:07;;;;;;;7.50;1.53;;;;;;;;;;4971131;28;20420;-49
2022/09/09 10:12:06;;;;;;;2.93;1.50;;;;;;;;;;4972251;28;20916;-51
2022/09/09 10:14:52;;;;;;;4.40;1.47;;;;;;;;;;4929846;28;20432;-50
2022/09/09 10:17:27;;;;;;;7.07;2.33;;;;;;;;;;4954084;29;20846;-50
2022/09/09 10:20:04;;;;;;;3.57;1.50;;;;;;;;;;4967239;28;20479;-47
2022/09/09 10:22:34;;;;;;;4.07;1.60;;;;;;;;;;4972750;28;20414;-48
2022/09/09 10:25:09;;;;;;;4.93;1.67;;;;;;;;;;4972578;28;20944;-48
2022/09/09 10:27:45;;;;;;;3.60;1.20;;;;;;;;;;4971619;28;20493;-49
2022/09/09 10:30:11;;;;;;;2.77;1.73;;;;;;;;;;4972155;28;20836;-49
2022/09/09 10:32:41;;;;;;;3.17;1.40;;;;;;;;;;4976683;28;20520;-49
2022/09/09 10:35:19;;;;;;;6.90;1.60;;;;;;;;;;4972465;28;20801;-49
2022/09/09 10:37:50;;;;;;;6.13;1.50;;;;;;;;;;4970140;28;20519;-48
2022/09/09 10:40:56;;;;;;;3.57;1.47;;;;;;;;;;4972289;28;20427;-49
2022/09/09 10:43:31;;;;;;;2.20;1.10;;;;;;;;;;4913021;29;20431;-47
2022/09/09 10:46:12;;;;;;;2.70;1.30;;;;;;;;;;4912978;29;20431;-48
2022/09/09 10:48:42;;;;;;;1.83;1.13;;;;;;;;;;4950125;28;20428;-48
2022/09/09 10:51:14;;;;;;;5.43;1.20;;;;;;;;;;4972004;28;20413;-49
2022/09/09 10:53:57;;;;;;;2.30;1.20;;;;;;;;;;4972825;28;20412;-49
2022/09/09 10:56:25;;;;;;;1.10;0.90;;;;;;;;;;4972556;28;20484;-49
2022/09/09 10:58:59;;;;;;;1.37;0.83;;;;;;;;;;4971940;28;20527;-49
2022/09/09 11:01:38;;;;;;;3.37;1.47;;;;;;;;;;4971566;28;20412;-49
2022/09/09 11:04:24;;;;;;;3.10;1.13;;;;;;;;;;4972327;28;20547;-48
2022/09/09 11:06:54;;;;;;;1.80;1.20;;;;;;;;;;4972592;28;20421;-49
2022/09/09 11:09:23;;;;;;;3.47;1.60;;;;;;;;;;4971241;28;20451;-47
2022/09/09 11:11:52;;;;;;;1.80;1.10;;;;;;;;;;4975686;28;20786;-50
2022/09/09 11:14:33;;;;;;;3.03;1.27;;;;;;;;;;4976387;28;20415;-50
2022/09/09 11:17:04;;;;;;;2.70;1.00;;;;;;;;;;4976174;28;20466;-49
2022/09/09 11:19:31;;;;;;;3.50;1.60;;;;;;;;;;4976234;28;20495;-48
2022/09/09 11:21:59;;;;;;;3.33;1.10;;;;;;;;;;4976564;28;20408;-47
2022/09/09 11:24:34;;;;;;;5.43;1.53;;;;;;;;;;4976323;28;20441;-48
2022/09/09 11:27:09;;;;;;;1.50;1.00;;;;;;;;;;4976052;28;20428;-48
2022/09/09 11:29:54;;;;;;;3.30;1.20;;;;;;;;;;4974914;28;20516;-48
2022/09/09 11:32:23;;;;;;;3.20;1.43;;;;;;;;;;4976371;28;20416;-48
2022/09/09 11:34:57;;;;;;;1.20;1.10;;;;;;;;;;4975991;28;20460;-48
2022/09/09 11:37:41;;;;;;;1.50;1.20;;;;;;;;;;4976468;28;20416;-49
2022/09/09 11:40:16;;;;;;;4.50;1.00;;;;;;;;;;4975706;28;20486;-50
2022/09/09 11:42:42;;;;;;;3.03;1.40;;;;;;;;;;4976159;28;20393;-47
2022/09/09 11:45:20;;;;;;;2.80;1.23;;;;;;;;;;4975770;28;20405;-49
2022/09/09 11:47:53;;;;;;;2.13;1.10;;;;;;;;;;4976148;28;20403;-48
2022/09/09 11:50:19;;;;;;;3.33;1.20;;;;;;;;;;4975529;28;20781;-47
2022/09/09 11:52:46;;;;;;;1.60;1.17;;;;;;;;;;4972896;28;20518;-48
2022/09/09 11:55:26;;;;;;;2.70;1.23;;;;;;;;;;4975143;28;20459;-48
2022/09/09 11:57:58;;;;;;;2.37;1.10;;;;;;;;;;4975315;28;20890;-47
2022/09/09 12:00:41;;;;;;;2.03;1.50;;;;;;;;;;4975227;28;20786;-49
2022/09/09 12:03:26;;;;;;;2.13;1.40;;;;;;;;;;4974379;28;20416;-48
2022/09/09 12:05:53;;;;;;;4.73;1.43;;;;;;;;;;4975384;28;20436;-47
2022/09/09 12:08:23;;;;;;;2.00;1.10;;;;;;;;;;4975436;28;20424;-47
2022/09/09 12:10:56;;;;;;;7.57;1.53;;;;;;;;;;4975106;28;20412;-49
2022/09/09 12:13:24;;;;;;;3.13;1.53;;;;;;;;;;4975281;28;20900;-47
2022/09/09 12:15:53;;;;;;;2.97;1.57;;;;;;;;;;4975121;28;20475;-48
2022/09/09 12:18:23;;;;;;;2.70;1.33;;;;;;;;;;4974501;28;20814;-48
2022/09/09 12:21:07;;;;;;;8.10;1.87;;;;;;;;;;4974224;28;20535;-49
2022/09/09 12:23:36;;;;;;;4.10;2.00;;;;;;;;;;4975415;28;20409;-48
2022/09/09 12:26:07;;;;;;;5.77;2.27;;;;;;;;;;4975137;28;20433;-48
2022/09/09 12:28:42;;;;;;;2.17;1.50;;;;;;;;;;4975240;28;20416;-47
2022/09/09 12:31:17;;;;;;;4.93;1.73;;;;;;;;;;4972391;28;20503;-49
2022/09/09 12:33:45;;;;;;;5.50;1.70;;;;;;;;;;4974973;28;20401;-47
2022/09/09 12:36:13;;;;;;;4.43;1.57;;;;;;;;;;4974707;28;20468;-47
2022/09/09 12:38:40;;;;;;;3.57;1.70;;;;;;;;;;4974999;28;20406;-48
2022/09/09 12:41:06;;;;;;;1.93;1.67;;;;;;;;;;4974940;28;20879;-49
2022/09/09 12:43:32;;;;;;;2.30;1.77;;;;;;;;;;4972693;28;20432;-48
2022/09/09 12:46:00;;;;;;;2.07;1.40;;;;;;;;;;4974472;28;20437;-48
2022/09/09 12:48:53;;;;;;;1.90;1.27;;;;;;;;;;4974825;28;20401;-48
2022/09/09 12:51:21;;;;;;;2.10;1.50;;;;;;;;;;4972219;28;20884;-48
2022/09/09 12:53:47;;;;;;;4.53;1.40;;;;;;;;;;4974773;28;20777;-47
2022/09/09 12:56:21;;;;;;;9.70;2.17;;;;;;;;;;4974255;28;20952;-48
2022/09/09 12:58:48;;;;;;;5.00;2.17;;;;;;;;;;4974598;28;20432;-48
2022/09/09 13:01:31;;;;;;;3.37;1.87;;;;;;;;;;4974133;28;20403;-48
2022/09/09 13:03:57;;;;;;;10.03;1.70;;;;;;;;;;4974682;28;20408;-47
2022/09/09 13:06:25;;;;;;;4.03;1.80;;;;;;;;;;4974309;28;21010;-47
2022/09/09 13:08:52;;;;;;;4.30;1.70;;;;;;;;;;4974430;28;20467;-49
2022/09/09 13:11:22;;;;;;;1.83;1.63;;;;;;;;;;4972743;28;20434;-48
2022/09/09 13:13:53;;;;;;;2.30;1.40;;;;;;;;;;4974288;28;20409;-47
2022/09/09 13:16:21;;;;;;;1.70;1.60;;;;;;;;;;4974231;28;20511;-47
2022/09/09 13:18:47;;;;;;;1.30;1.00;;;;;;;;;;4972245;28;20414;-48
2022/09/09 13:21:14;;;;;;;2.90;1.30;;;;;;;;;;4973652;28;20459;-50
2022/09/09 13:23:40;;;;;;;11.93;1.57;;;;;;;;;;4974073;28;20437;-48
2022/09/09 13:26:25;;;;;;;2.40;1.50;;;;;;;;;;4973807;28;20429;-48
2022/09/09 13:28:52;;;;;;;2.57;1.20;;;;;;;;;;4973914;28;20496;-48
2022/09/09 13:31:45;;;;;;;3.30;1.37;;;;;;;;;;4973891;28;20781;-49
2022/09/09 13:34:13;;;;;;;2.70;1.40;;;;;;;;;;4972423;28;20499;-48
2022/09/09 13:36:41;;;;;;;3.93;1.30;;;;;;;;;;4973916;28;20961;-48
2022/09/09 13:39:15;;;;;;;3.10;1.30;;;;;;;;;;4972480;28;20772;-49
2022/09/09 13:41:45;;;;;;;5.30;1.73;;;;;;;;;;4973927;28;20399;-48
2022/09/09 13:44:18;;;;;;;4.70;1.53;;;;;;;;;;4973616;28;20402;-49
2022/09/09 13:46:45;;;;;;;1.60;1.47;;;;;;;;;;4973674;28;20510;-47
2022/09/09 13:49:11;;;;;;;3.00;1.27;;;;;;;;;;4973413;28;20476;-49
2022/09/09 13:51:46;;;;;;;4.53;1.20;;;;;;;;;;4973807;28;20405;-48
2022/09/09 13:54:13;;;;;;;3.70;1.73;;;;;;;;;;4972699;28;20472;-48
2022/09/09 13:56:40;;;;;;;3.40;1.50;;;;;;;;;;4972662;28;20509;-49
2022/09/09 13:59:07;;;;;;;4.13;1.77;;;;;;;;;;4973207;28;20442;-48
2022/09/09 14:01:34;;;;;;;3.20;1.77;;;;;;;;;;4973687;28;20467;-47
2022/09/09 14:04:00;;;;;;;5.63;1.60;;;;;;;;;;4973454;28;20773;-47
2022/09/09 14:06:27;;;;;;;6.60;2.50;;;;;;;;;;4973335;28;20433;-47
2022/09/09 14:08:54;;;;;;;3.70;2.10;;;;;;;;;;4972418;28;20797;-48
2022/09/09 14:11:21;;;;;;;5.53;1.83;;;;;;;;;;4973090;28;20420;-46
2022/09/09 14:13:47;;;;;;;2.20;1.80;;;;;;;;;;4973429;28;20413;-48
2022/09/09 14:16:13;;;;;;;3.67;1.93;;;;;;;;;;4973032;28;20472;-48
2022/09/09 14:18:40;;;;;;;2.93;1.70;;;;;;;;;;4973379;28;20489;-48
2022/09/09 14:21:06;;;;;;;2.10;1.50;;;;;;;;;;4972980;28;20430;-48
2022/09/09 14:23:32;;;;;;;2.37;1.60;;;;;;;;;;4973174;28;20907;-47
2022/09/09 14:25:58;;;;;;;4.30;1.30;;;;;;;;;;4973026;28;20429;-47
2022/09/09 14:28:25;;;;;;;2.73;1.30;;;;;;;;;;4973523;28;20776;-48
2022/09/09 14:30:51;;;;;;;3.47;1.70;;;;;;;;;;4972807;28;20889;-49
2022/09/09 14:33:17;;;;;;;2.20;1.30;;;;;;;;;;4973248;28;20508;-48
2022/09/09 14:35:44;;;;;;;2.30;1.10;;;;;;;;;;4972871;28;20456;-47
2022/09/09 14:38:10;;;;;;;4.50;1.50;;;;;;;;;;4973108;28;20477;-48
2022/09/09 14:40:36;;;;;;;2.23;1.50;;;;;;;;;;4971304;28;20932;-49
2022/09/09 14:43:04;;;;;;;4.93;1.60;;;;;;;;;;4971659;28;20512;-48
2022/09/09 14:45:30;;;;;;;4.30;1.20;;;;;;;;;;4971908;28;20435;-47
2022/09/09 14:47:56;;;;;;;6.27;1.60;;;;;;;;;;4973016;28;20408;-48
2022/09/09 14:50:22;;;;;;;1.97;1.40;;;;;;;;;;4972499;28;20397;-48
2022/09/09 14:52:48;;;;;;;3.37;1.40;;;;;;;;;;4970579;28;20411;-49
2022/09/09 14:55:15;;;;;;;3.40;2.10;;;;;;;;;;4972471;28;20460;-48
2022/09/09 14:57:41;;;;;;;2.23;1.50;;;;;;;;;;4972537;28;20409;-49